• Join FlightAware (Why Join?)
  • Login
  • US Flag 
05:27PM EDT


 

Airport Tracker/Info


-or-


 

Live Flight TrackerFlight Track Log ✈ C-GOAL ✈ 10-Oct-2013 ✈ KCEF - CYSG

Flight Track Log - Related Links

Times and Time Zones

All times are in EDT time to prevent confusion due to time zone crossing. See the C-GOAL flight status page for this flight to view local times or setup timezone preferences in your user account.

Time Position Orientation Groundspeed Altitude Reporting Facility
EDT Latitude Longitude Course Direction KTS MPH feet Rate Location/Type
04:28PM 42.2919 -72.4372 22° Northeast 132 152 8,200  Level Boston Center
04:29PM 42.3169 -72.4233 22° Northeast 110 127 8,800 540 Climbing Boston Center
04:30PM 42.3461 -72.4092 20° North 110 127 9,300 360 Climbing Boston Center
04:31PM 42.3733 -72.3922 25° Northeast 110 127 9,600 120 Climbing Boston Center
04:32PM 42.4067 -72.3725 24° Northeast 110 127 9,600 -60 Level Boston Center
04:33PM 42.4419 -72.3500 25° Northeast 122 140 9,500 -60 Descending Boston Center
04:34PM 42.4775 -72.3219 30° Northeast 133 153 9,500  Level Boston Center
04:35PM 42.5150 -72.3050 18° North 138 159 9,600  Climbing Boston Center
04:36PM 42.5544 -72.2822 23° Northeast 138 159 9,500 -60 Descending Boston Center
04:38PM 42.6193 -72.2593 15° North  Level FlightAware Approximate
04:38PM 42.6294 -72.2425 15° North 138 159 9,500  Level Boston Center
04:39PM 42.6669 -72.2256 18° North 138 159 9,600  Climbing Boston Center
04:40PM 42.7044 -72.2142 13° North 133 153 9,500  Descending Boston Center
04:41PM 42.7419 -72.1969 19° North 133 153 9,600  Climbing Boston Center
04:42PM 42.7794 -72.1742 24° Northeast 140 161 9,500 -120 Descending Boston Center
04:43PM 42.8169 -72.1542 21° North 140 161 9,400  Descending Boston Center
04:44PM 42.8522 -72.1314 25° Northeast 140 161 9,600  Climbing Boston Center
04:45PM 42.8875 -72.1058 28° Northeast 140 161 9,400 -300 Descending Boston Center
04:46PM 42.9231 -72.0744 33° Northeast 140 161 9,100 -300 Descending Boston Center
04:47PM 42.9583 -72.0458 31° Northeast 140 161 8,900 -300 Descending Boston Center
04:48PM 42.9914 -72.0172 32° Northeast 140 161 8,600 -300 Descending Boston Center
04:49PM 43.0289 -71.9886 29° Northeast 140 161 8,400 -60 Descending Boston Center
04:50PM 43.0642 -71.9628 28° Northeast 140 161 8,500 60 Climbing Boston Center
04:51PM 43.0994 -71.9397 26° Northeast 140 161 8,600  Climbing Boston Center
04:52PM 43.1392 -71.9250 15° North 135 155 8,500 -60 Descending Boston Center
04:53PM 43.1786 -71.9106 15° North 135 155 8,500  Level Boston Center
04:54PM 43.2181 -71.8989 12° North 141 162 8,500  Level Boston Center
04:55PM 43.2578 -71.8869 12° North 141 162 8,600  Climbing Boston Center
04:56PM 43.2972 -71.8808 North 141 162 8,600  Level Boston Center
04:57PM 43.3411 -71.8747 North 141 162 8,600 -60 Level Boston Center
04:58PM 43.3783 -71.8631 13° North 156 180 8,500 -60 Descending Boston Center
04:59PM 43.4222 -71.8483 14° North 151 174 8,500  Level Boston Center
05:00PM 43.4594 -71.8336 16° North 151 174 8,500  Level Boston Center
05:01PM 43.5075 -71.8189 13° North 151 174 8,500  Level Boston Center
05:02PM 43.5386 -71.7986 25° Northeast 170 196 8,600  Climbing Boston Center
05:03PM 43.5803 -71.7867 12° North 155 178 8,600 -60 Level Boston Center
05:04PM 43.6197 -71.7661 21° North 144 166 8,500  Descending Boston Center
05:05PM 43.6572 -71.7542 13° North 150 173 8,600  Climbing Boston Center
05:06PM 43.6944 -71.7367 19° North 150 173 8,600  Level Boston Center
05:07PM 43.7319 -71.7161 22° Northeast 145 167 8,600 -60 Level Boston Center
05:08PM 43.7692 -71.6983 19° North 145 167 8,500  Descending Boston Center
05:09PM 43.8067 -71.6806 19° North 145 167 8,600  Climbing Boston Center
05:10PM 43.8461 -71.6658 15° North 145 167 8,600  Level Boston Center
05:11PM 43.8814 -71.6450 23° Northeast 145 167 8,600  Level Boston Center
05:12PM 43.9189 -71.6244 22° Northeast 140 161 8,600  Level Boston Center
05:13PM 43.9583 -71.6122 13° North 140 161 8,600  Level Boston Center
05:14PM 43.9936 -71.5917 23° Northeast 140 161 8,600  Level Boston Center
05:15PM 44.0350 -71.5739 17° North 146 168 8,600  Level Boston Center
05:16PM 44.0744 -71.5531 21° North 146 168 8,600  Level Boston Center
05:17PM 44.1097 -71.5322 23° Northeast 141 162 8,600 -60 Level Boston Center
05:18PM 44.1514 -71.5114 20° North 141 162 8,500  Descending Boston Center
05:19PM 44.1844 -71.4906 24° Northeast 141 162 8,600  Climbing Boston Center
05:20PM 44.2219 -71.4725 19° North 141 162 8,500 -60 Descending Boston Center
05:21PM 44.2572 -71.4575 17° North 141 162 8,500  Level Boston Center
05:22PM 44.2964 -71.4336 24° Northeast 146 168 8,500  Level Boston Center
05:23PM 44.3358 -71.4097 23° Northeast 146 168 8,500  Level Boston Center
05:24PM 44.3711 -71.3889 23° Northeast 146 168 8,600  Climbing Boston Center
05:25PM 44.4022 -71.3736 19° North 146 168 8,500  Descending Boston Center
05:26PM 44.4417 -71.3525 21° North 146 168 8,600  Climbing Boston Center
05:27PM 44.4811 -71.3344 18° North 146 168 8,500 -60 Descending Boston Center
05:28PM 44.5183 -71.3106 25° Northeast 146 168 8,500  Level Boston Center
05:29PM 44.5556 -71.2922 19° North 146 168 8,500  Level Boston Center
05:31PM 44.5949 -71.3401 319° Northwest  Level FlightAware Approximate
05:31PM 44.6281 -71.2531 319° Northwest 146 168 8,500  Level Boston Center
05:32PM 44.6675 -71.2347 18° North 146 168 8,600  Climbing Boston Center
05:33PM 44.7069 -71.2164 18° North 146 168 8,500  Descending Boston Center
05:34PM 44.7442 -71.2008 17° North 146 168 8,600  Climbing Boston Center
05:35PM 44.7836 -71.1797 21° North 146 168 8,500 -60 Descending Boston Center
05:36PM 44.8231 -71.1611 19° North 146 168 8,500  Level Boston Center
05:37PM 44.8603 -71.1369 25° Northeast 146 168 8,500  Level Boston Center
05:38PM 44.8953 -71.1128 26° Northeast 146 168 8,600  Climbing Boston Center
05:39PM 44.9347 -71.0942 18° North 146 168 8,600 -60 Level Boston Center
05:40PM 44.9719 -71.0728 22° Northeast 146 168 8,500 -60 Descending Boston Center
05:41PM 45.0133 -71.0542 18° North 146 168 8,500  Level Boston Center
05:42PM 45.0550 -71.0386 15° North 146 168 8,600  Climbing Boston Center
05:43PM 45.0944 -71.0258 13° North 146 168 8,600  Level Boston Center
05:44PM 45.1317 -71.0133 13° North 146 168 8,600 -60 Level Boston Center
05:45PM 45.1711 -71.0006 13° North 146 168 8,500 -60 Descending Boston Center
05:46PM 45.2083 -70.9906 11° North 146 168 8,500  Level Boston Center
05:47PM 45.2478 -70.9750 16° North 146 168 8,500  Level Boston Center
05:48PM 45.2853 -70.9622 13° North 146 168 8,500  Level Boston Center
05:49PM 45.3000 -70.9333 54° Northeast 140 161 8,600  Climbing Montreal Center
05:50PM 45.3500 -70.9333 360° North 150 173 8,600 -180 Level Montreal Center
05:51PM 45.3833 -70.9333 360° North 150 173 8,300 -300 Descending Montreal Center
05:52PM 45.4333 -70.9333 360° North 150 173 8,100 -240 Descending Montreal Center
05:53PM 45.4667 -70.9000 35° Northeast 160 184 7,900 -300 Descending Montreal Center
05:54PM 45.5167 -70.9000 360° North 150 173 7,600 -300 Descending Montreal Center
05:55PM 45.5500 -70.9000 360° North 150 173 7,300 -360 Descending Montreal Center
05:56PM 45.6000 -70.8667 25° Northeast 160 184 6,900 -540 Descending Montreal Center
05:57PM 45.6333 -70.8333 35° Northeast 160 184 6,300 -720 Descending Montreal Center
05:58PM 45.6833 -70.8000 25° Northeast 160 184 5,500 -840 Descending Montreal Center
06:00PM 45.7380 -70.7864 10° North  Level FlightAware Approximate
06:07PM 46.0052 -70.7197 10° North  Level FlightAware Approximate
06:08PM 46.0434 -70.7101 10° North  Level FlightAware Approximate
06:09PM 46.0815 -70.7005 10° North  Level FlightAware Approximate
06:10PM 46.0833 -70.7000 14° North  Level FlightAware Approximate
06:11PM 46.0964 -70.7147 14° North  Level Estimated
06:12PM 46.0964 -70.7147 14° North  Level Estimated
06:13PM 46.0964 -70.7147 14° North  Level Estimated
06:14PM 46.0964 -70.7147 14° North  Level Estimated
06:15PM 46.0964 -70.7147 14° North  Level Estimated
06:16PM 46.0964 -70.7147 14° North  Level Estimated
06:17PM 46.0964 -70.7147 14° North  Level Estimated
06:18PM 46.0964 -70.7147 14° North  Level Estimated
06:19PM 46.0964 -70.7147 14° North  Level Estimated
06:20PM 46.0964 -70.7147 14° North  Level Estimated
06:21PM 46.0964 -70.7147 14° North  Level Estimated
06:22PM 46.0964 -70.7147 14° North  Level Estimated
06:23PM 46.0964 -70.7147 14° North  Level Estimated
06:24PM 46.0964 -70.7147 14° North  Level Estimated
06:25PM 46.0964 -70.7147 14° North  Level Estimated